sensor_id;sensor_type;location;lat;lon;timestamp;pressure;altitude;pressure_sealevel;temperature;humidity
13027;BME280;6580;42.680;23.324;2023-04-10T00:01:22;95396.88;;;8.79;99.30
13027;BME280;6580;42.680;23.324;2023-04-10T00:04:07;95394.66;;;8.84;98.32
13027;BME280;6580;42.680;23.324;2023-04-10T00:06:56;95388.81;;;8.80;99.07
13027;BME280;6580;42.680;23.324;2023-04-10T00:09:42;95387.78;;;9.00;96.06
13027;BME280;6580;42.680;23.324;2023-04-10T00:12:28;95378.44;;;8.87;94.49
13027;BME280;6580;42.680;23.324;2023-04-10T00:15:13;95378.72;;;8.84;93.96
13027;BME280;6580;42.680;23.324;2023-04-10T00:18:00;95379.28;;;8.78;94.83
13027;BME280;6580;42.680;23.324;2023-04-10T00:20:46;95385.84;;;8.83;91.22
13027;BME280;6580;42.680;23.324;2023-04-10T00:23:33;95376.91;;;8.75;91.82
13027;BME280;6580;42.680;23.324;2023-04-10T00:26:18;95375.13;;;8.66;88.45
13027;BME280;6580;42.680;23.324;2023-04-10T00:29:07;95371.94;;;8.62;83.65
13027;BME280;6580;42.680;23.324;2023-04-10T00:31:53;95366.91;;;8.59;81.92
13027;BME280;6580;42.680;23.324;2023-04-10T00:34:43;95369.53;;;8.69;78.73
13027;BME280;6580;42.680;23.324;2023-04-10T00:37:28;95371.91;;;8.72;74.21
13027;BME280;6580;42.680;23.324;2023-04-10T00:40:15;95374.00;;;8.68;71.34
13027;BME280;6580;42.680;23.324;2023-04-10T00:43:01;95367.72;;;8.69;70.86
13027;BME280;6580;42.680;23.324;2023-04-10T00:45:47;95365.75;;;8.71;69.12
13027;BME280;6580;42.680;23.324;2023-04-10T00:48:32;95371.31;;;8.78;68.64
13027;BME280;6580;42.680;23.324;2023-04-10T00:51:19;95354.41;;;8.79;68.84
13027;BME280;6580;42.680;23.324;2023-04-10T00:54:07;95364.75;;;8.82;69.65
13027;BME280;6580;42.680;23.324;2023-04-10T00:56:54;95364.50;;;8.75;69.55
13027;BME280;6580;42.680;23.324;2023-04-10T00:59:42;95363.25;;;8.70;71.14
13027;BME280;6580;42.680;23.324;2023-04-10T01:02:28;95365.31;;;8.76;71.99
13027;BME280;6580;42.680;23.324;2023-04-10T01:05:15;95362.22;;;8.90;73.61
13027;BME280;6580;42.680;23.324;2023-04-10T01:08:10;95356.47;;;8.94;76.82
13027;BME280;6580;42.680;23.324;2023-04-10T01:11:01;95343.47;;;8.91;84.78
13027;BME280;6580;42.680;23.324;2023-04-10T01:13:57;95349.28;;;9.04;91.24
13027;BME280;6580;42.680;23.324;2023-04-10T01:16:50;95348.34;;;8.96;93.44
13027;BME280;6580;42.680;23.324;2023-04-10T01:23:19;95350.63;;;8.91;97.54
13027;BME280;6580;42.680;23.324;2023-04-10T01:26:09;95358.44;;;8.83;100.00
13027;BME280;6580;42.680;23.324;2023-04-10T01:28:59;95355.50;;;8.86;100.00
13027;BME280;6580;42.680;23.324;2023-04-10T01:31:49;95341.41;;;8.76;100.00
13027;BME280;6580;42.680;23.324;2023-04-10T01:34:40;95347.00;;;8.82;100.00
13027;BME280;6580;42.680;23.324;2023-04-10T01:37:29;95344.59;;;8.89;100.00
13027;BME280;6580;42.680;23.324;2023-04-10T01:40:17;95354.28;;;8.80;100.00
13027;BME280;6580;42.680;23.324;2023-04-10T01:43:07;95338.19;;;8.82;100.00
13027;BME280;6580;42.680;23.324;2023-04-10T01:45:56;95348.81;;;8.82;100.00
13027;BME280;6580;42.680;23.324;2023-04-10T01:48:42;95351.88;;;8.87;100.00
13027;BME280;6580;42.680;23.324;2023-04-10T01:51:30;95346.84;;;8.84;100.00
13027;BME280;6580;42.680;23.324;2023-04-10T01:54:18;95352.44;;;8.81;100.00
13027;BME280;6580;42.680;23.324;2023-04-10T01:57:04;95345.75;;;8.77;100.00
13027;BME280;6580;42.680;23.324;2023-04-10T01:59:50;95361.63;;;8.96;100.00
13027;BME280;6580;42.680;23.324;2023-04-10T02:02:36;95349.75;;;8.90;100.00
13027;BME280;6580;42.680;23.324;2023-04-10T02:05:24;95349.22;;;8.87;100.00
13027;BME280;6580;42.680;23.324;2023-04-10T02:08:15;95352.13;;;8.93;100.00
13027;BME280;6580;42.680;23.324;2023-04-10T02:11:10;95344.00;;;8.95;100.00
13027;BME280;6580;42.680;23.324;2023-04-10T02:13:59;95336.84;;;9.05;100.00
13027;BME280;6580;42.680;23.324;2023-04-10T02:16:46;95332.13;;;8.99;100.00
13027;BME280;6580;42.680;23.324;2023-04-10T02:19:51;95325.72;;;8.92;98.86
13027;BME280;6580;42.680;23.324;2023-04-10T02:22:39;95322.97;;;8.84;95.55
13027;BME280;6580;42.680;23.324;2023-04-10T02:25:27;95319.72;;;8.90;94.07
13027;BME280;6580;42.680;23.324;2023-04-10T02:28:15;95313.31;;;8.83;94.53
13027;BME280;6580;42.680;23.324;2023-04-10T02:31:00;95314.78;;;8.95;91.42
13027;BME280;6580;42.680;23.324;2023-04-10T02:33:46;95311.28;;;9.04;88.79
13027;BME280;6580;42.680;23.324;2023-04-10T02:36:36;95308.69;;;8.85;88.48
13027;BME280;6580;42.680;23.324;2023-04-10T02:39:22;95300.47;;;8.78;89.35
13027;BME280;6580;42.680;23.324;2023-04-10T02:42:07;95303.97;;;8.79;89.31
13027;BME280;6580;42.680;23.324;2023-04-10T02:44:53;95305.06;;;8.86;89.46
13027;BME280;6580;42.680;23.324;2023-04-10T02:47:40;95308.50;;;8.96;89.95
13027;BME280;6580;42.680;23.324;2023-04-10T02:50:25;95298.72;;;8.96;90.84
13027;BME280;6580;42.680;23.324;2023-04-10T02:53:14;95292.72;;;8.94;91.85
13027;BME280;6580;42.680;23.324;2023-04-10T02:56:01;95292.47;;;8.88;92.94
13027;BME280;6580;42.680;23.324;2023-04-10T02:58:46;95287.94;;;8.71;94.44
13027;BME280;6580;42.680;23.324;2023-04-10T03:01:32;95296.81;;;8.89;94.02
13027;BME280;6580;42.680;23.324;2023-04-10T03:04:17;95288.19;;;8.77;95.12
13027;BME280;6580;42.680;23.324;2023-04-10T03:07:02;95294.91;;;8.72;95.61
13027;BME280;6580;42.680;23.324;2023-04-10T03:09:51;95291.31;;;8.63;97.46
13027;BME280;6580;42.680;23.324;2023-04-10T03:12:38;95296.63;;;8.63;98.41
13027;BME280;6580;42.680;23.324;2023-04-10T03:15:25;95299.69;;;8.59;99.46
13027;BME280;6580;42.680;23.324;2023-04-10T03:18:11;95293.41;;;8.60;100.00
13027;BME280;6580;42.680;23.324;2023-04-10T03:20:57;95297.63;;;8.53;100.00
13027;BME280;6580;42.680;23.324;2023-04-10T03:23:42;95301.09;;;8.53;100.00
13027;BME280;6580;42.680;23.324;2023-04-10T03:26:30;95293.06;;;8.36;100.00
13027;BME280;6580;42.680;23.324;2023-04-10T03:29:17;95294.84;;;8.45;100.00
13027;BME280;6580;42.680;23.324;2023-04-10T03:32:02;95303.94;;;8.42;100.00
13027;BME280;6580;42.680;23.324;2023-04-10T03:34:47;95302.81;;;8.35;100.00
13027;BME280;6580;42.680;23.324;2023-04-10T03:37:33;95300.31;;;8.15;100.00
13027;BME280;6580;42.680;23.324;2023-04-10T03:40:18;95304.38;;;8.19;100.00
13027;BME280;6580;42.680;23.324;2023-04-10T03:43:08;95310.69;;;8.18;100.00
13027;BME280;6580;42.680;23.324;2023-04-10T03:45:53;95315.66;;;8.02;100.00
13027;BME280;6580;42.680;23.324;2023-04-10T03:48:39;95316.25;;;7.96;100.00
13027;BME280;6580;42.680;23.324;2023-04-10T03:51:25;95313.19;;;8.01;100.00
13027;BME280;6580;42.680;23.324;2023-04-10T03:54:11;95323.50;;;7.94;100.00
13027;BME280;6580;42.680;23.324;2023-04-10T03:57:00;95320.16;;;7.92;100.00
13027;BME280;6580;42.680;23.324;2023-04-10T03:59:47;95328.66;;;7.86;100.00
13027;BME280;6580;42.680;23.324;2023-04-10T04:02:32;95336.63;;;7.86;100.00
13027;BME280;6580;42.680;23.324;2023-04-10T04:05:19;95333.56;;;7.81;100.00
13027;BME280;6580;42.680;23.324;2023-04-10T04:08:04;95338.00;;;7.71;100.00
13027;BME280;6580;42.680;23.324;2023-04-10T04:10:51;95340.53;;;7.73;100.00
13027;BME280;6580;42.680;23.324;2023-04-10T04:13:37;95339.97;;;7.98;100.00
13027;BME280;6580;42.680;23.324;2023-04-10T04:16:24;95339.25;;;7.96;100.00
13027;BME280;6580;42.680;23.324;2023-04-10T04:19:11;95335.53;;;7.98;100.00
13027;BME280;6580;42.680;23.324;2023-04-10T04:21:57;95341.91;;;7.96;100.00
13027;BME280;6580;42.680;23.324;2023-04-10T04:24:43;95339.84;;;7.99;100.00
13027;BME280;6580;42.680;23.324;2023-04-10T04:27:29;95334.13;;;8.13;100.00
13027;BME280;6580;42.680;23.324;2023-04-10T04:30:15;95339.88;;;8.27;100.00
13027;BME280;6580;42.680;23.324;2023-04-10T04:33:02;95336.88;;;8.40;100.00
13027;BME280;6580;42.680;23.324;2023-04-10T04:35:48;95340.13;;;8.34;100.00
13027;BME280;6580;42.680;23.324;2023-04-10T04:38:41;95336.63;;;8.33;100.00
13027;BME280;6580;42.680;23.324;2023-04-10T04:41:30;95343.44;;;8.55;100.00
13027;BME280;6580;42.680;23.324;2023-04-10T04:44:20;95335.56;;;8.72;100.00
13027;BME280;6580;42.680;23.324;2023-04-10T04:47:07;95345.47;;;8.80;100.00
13027;BME280;6580;42.680;23.324;2023-04-10T04:49:56;95351.88;;;8.87;100.00
13027;BME280;6580;42.680;23.324;2023-04-10T04:52:42;95341.56;;;9.10;100.00
13027;BME280;6580;42.680;23.324;2023-04-10T04:55:29;95341.69;;;9.45;100.00
13027;BME280;6580;42.680;23.324;2023-04-10T04:58:15;95344.38;;;10.07;97.96
13027;BME280;6580;42.680;23.324;2023-04-10T05:01:01;95345.88;;;9.92;94.71
13027;BME280;6580;42.680;23.324;2023-04-10T05:03:47;95346.63;;;10.80;91.83
13027;BME280;6580;42.680;23.324;2023-04-10T05:06:34;95342.38;;;11.20;86.66
13027;BME280;6580;42.680;23.324;2023-04-10T05:09:23;95351.91;;;11.22;83.56
13027;BME280;6580;42.680;23.324;2023-04-10T05:12:10;95348.81;;;11.35;81.64
13027;BME280;6580;42.680;23.324;2023-04-10T05:14:57;95354.13;;;11.60;80.15
13027;BME280;6580;42.680;23.324;2023-04-10T05:17:43;95349.41;;;11.54;80.58
13027;BME280;6580;42.680;23.324;2023-04-10T05:20:28;95350.56;;;11.93;76.67
13027;BME280;6580;42.680;23.324;2023-04-10T05:23:18;95351.44;;;12.10;74.23
13027;BME280;6580;42.680;23.324;2023-04-10T05:26:04;95340.53;;;11.87;73.39
13027;BME280;6580;42.680;23.324;2023-04-10T05:28:50;95346.25;;;12.08;72.78
13027;BME280;6580;42.680;23.324;2023-04-10T05:31:35;95342.59;;;12.41;69.88
13027;BME280;6580;42.680;23.324;2023-04-10T05:34:21;95341.09;;;12.86;67.65
13027;BME280;6580;42.680;23.324;2023-04-10T05:37:06;95343.63;;;12.48;65.05
13027;BME280;6580;42.680;23.324;2023-04-10T05:39:53;95341.28;;;13.09;64.66
13027;BME280;6580;42.680;23.324;2023-04-10T05:42:41;95339.81;;;13.52;61.98
13027;BME280;6580;42.680;23.324;2023-04-10T05:45:27;95338.44;;;13.95;58.78
13027;BME280;6580;42.680;23.324;2023-04-10T05:48:13;95345.66;;;13.86;57.35
13027;BME280;6580;42.680;23.324;2023-04-10T05:50:58;95316.09;;;14.10;56.54
13027;BME280;6580;42.680;23.324;2023-04-10T05:53:44;95346.88;;;14.67;55.41
13027;BME280;6580;42.680;23.324;2023-04-10T05:56:31;95347.41;;;14.62;55.41
13027;BME280;6580;42.680;23.324;2023-04-10T05:59:16;95346.44;;;14.33;56.83
13027;BME280;6580;42.680;23.324;2023-04-10T06:02:01;95348.41;;;14.39;56.81
13027;BME280;6580;42.680;23.324;2023-04-10T06:04:47;95337.38;;;14.79;55.71
13027;BME280;6580;42.680;23.324;2023-04-10T06:07:32;95341.19;;;14.17;56.08
13027;BME280;6580;42.680;23.324;2023-04-10T06:10:17;95345.78;;;14.01;56.95
13027;BME280;6580;42.680;23.324;2023-04-10T06:13:04;95356.19;;;13.49;58.55
13027;BME280;6580;42.680;23.324;2023-04-10T06:15:50;95356.81;;;13.05;60.75
13027;BME280;6580;42.680;23.324;2023-04-10T06:18:38;95352.44;;;12.32;63.84
13027;BME280;6580;42.680;23.324;2023-04-10T06:21:23;95343.53;;;11.92;65.41
13027;BME280;6580;42.680;23.324;2023-04-10T06:24:08;95342.63;;;12.33;66.88
13027;BME280;6580;42.680;23.324;2023-04-10T06:26:54;95346.97;;;12.50;65.84
13027;BME280;6580;42.680;23.324;2023-04-10T06:29:41;95336.28;;;12.50;64.71
13027;BME280;6580;42.680;23.324;2023-04-10T06:32:27;95342.75;;;12.87;62.27
13027;BME280;6580;42.680;23.324;2023-04-10T06:35:12;95333.75;;;12.48;63.34
13027;BME280;6580;42.680;23.324;2023-04-10T06:37:58;95342.63;;;12.49;63.08
13027;BME280;6580;42.680;23.324;2023-04-10T06:40:43;95340.56;;;11.95;65.68
13027;BME280;6580;42.680;23.324;2023-04-10T06:43:29;95351.94;;;12.29;65.98
13027;BME280;6580;42.680;23.324;2023-04-10T06:46:16;95346.56;;;11.97;65.95
13027;BME280;6580;42.680;23.324;2023-04-10T06:49:09;95355.41;;;12.06;66.73
13027;BME280;6580;42.680;23.324;2023-04-10T06:51:55;95348.38;;;11.97;68.71
13027;BME280;6580;42.680;23.324;2023-04-10T06:54:40;95352.56;;;11.99;68.83
13027;BME280;6580;42.680;23.324;2023-04-10T06:57:25;95357.72;;;11.93;69.26
13027;BME280;6580;42.680;23.324;2023-04-10T07:00:12;95356.59;;;12.11;68.39
13027;BME280;6580;42.680;23.324;2023-04-10T07:02:59;95366.28;;;11.55;70.06
13027;BME280;6580;42.680;23.324;2023-04-10T07:05:45;95365.41;;;11.54;70.92
13027;BME280;6580;42.680;23.324;2023-04-10T07:08:30;95358.88;;;11.90;69.23
13027;BME280;6580;42.680;23.324;2023-04-10T07:11:16;95361.19;;;11.77;67.73
13027;BME280;6580;42.680;23.324;2023-04-10T07:14:01;95365.94;;;11.58;67.92
13027;BME280;6580;42.680;23.324;2023-04-10T07:16:47;95360.50;;;11.09;70.78
13027;BME280;6580;42.680;23.324;2023-04-10T07:19:34;95355.47;;;11.39;68.11
13027;BME280;6580;42.680;23.324;2023-04-10T07:22:21;95368.16;;;11.11;69.68
13027;BME280;6580;42.680;23.324;2023-04-10T07:25:07;95358.78;;;11.33;69.51
13027;BME280;6580;42.680;23.324;2023-04-10T07:27:53;95366.28;;;11.55;68.52
13027;BME280;6580;42.680;23.324;2023-04-10T07:30:39;95361.13;;;11.69;67.25
13027;BME280;6580;42.680;23.324;2023-04-10T07:33:25;95365.69;;;11.51;67.88
13027;BME280;6580;42.680;23.324;2023-04-10T07:36:12;95367.88;;;11.48;68.05
13027;BME280;6580;42.680;23.324;2023-04-10T07:38:57;95364.34;;;11.73;67.28
13027;BME280;6580;42.680;23.324;2023-04-10T07:41:43;95366.25;;;12.04;66.01
13027;BME280;6580;42.680;23.324;2023-04-10T07:44:28;95365.13;;;12.30;64.35
13027;BME280;6580;42.680;23.324;2023-04-10T07:47:14;95366.00;;;12.95;61.49
13027;BME280;6580;42.680;23.324;2023-04-10T07:49:59;95367.34;;;12.83;61.04
13027;BME280;6580;42.680;23.324;2023-04-10T07:52:48;95359.31;;;12.75;61.25
13027;BME280;6580;42.680;23.324;2023-04-10T07:55:38;95360.31;;;12.82;60.79
13027;BME280;6580;42.680;23.324;2023-04-10T07:58:23;95356.13;;;13.11;60.22
13027;BME280;6580;42.680;23.324;2023-04-10T08:01:08;95346.94;;;13.14;59.12
13027;BME280;6580;42.680;23.324;2023-04-10T08:03:54;95364.84;;;12.81;60.32
13027;BME280;6580;42.680;23.324;2023-04-10T08:06:40;95348.97;;;12.72;61.52
13027;BME280;6580;42.680;23.324;2023-04-10T08:09:26;95355.63;;;12.76;61.13
13027;BME280;6580;42.680;23.324;2023-04-10T08:12:12;95369.47;;;12.47;61.25
13027;BME280;6580;42.680;23.324;2023-04-10T08:14:57;95372.72;;;11.94;63.08
13027;BME280;6580;42.680;23.324;2023-04-10T08:17:43;95363.53;;;11.88;64.98
13027;BME280;6580;42.680;23.324;2023-04-10T08:20:30;95368.56;;;11.91;66.14
13027;BME280;6580;42.680;23.324;2023-04-10T08:23:19;95362.97;;;12.18;65.38
13027;BME280;6580;42.680;23.324;2023-04-10T08:26:07;95352.81;;;12.53;63.26
13027;BME280;6580;42.680;23.324;2023-04-10T08:28:55;95355.66;;;12.68;63.08
13027;BME280;6580;42.680;23.324;2023-04-10T08:31:40;95361.66;;;12.54;63.00
13027;BME280;6580;42.680;23.324;2023-04-10T08:34:26;95360.97;;;12.28;65.32
13027;BME280;6580;42.680;23.324;2023-04-10T08:37:11;95354.25;;;12.08;65.86
13027;BME280;6580;42.680;23.324;2023-04-10T08:39:58;95365.78;;;12.09;65.09
13027;BME280;6580;42.680;23.324;2023-04-10T08:42:46;95358.13;;;12.29;64.76
13027;BME280;6580;42.680;23.324;2023-04-10T08:45:32;95342.94;;;12.46;63.89
13027;BME280;6580;42.680;23.324;2023-04-10T08:48:18;95349.28;;;12.61;63.79
13027;BME280;6580;42.680;23.324;2023-04-10T08:51:06;95350.81;;;12.71;63.00
13027;BME280;6580;42.680;23.324;2023-04-10T08:53:57;95349.31;;;12.53;62.52
13027;BME280;6580;42.680;23.324;2023-04-10T08:56:49;95344.44;;;11.67;65.53
13027;BME280;6580;42.680;23.324;2023-04-10T08:59:36;95348.63;;;12.19;65.26
13027;BME280;6580;42.680;23.324;2023-04-10T09:02:23;95346.78;;;12.35;64.43
13027;BME280;6580;42.680;23.324;2023-04-10T09:05:10;95340.94;;;12.80;61.24
13027;BME280;6580;42.680;23.324;2023-04-10T09:07:56;95337.75;;;12.84;61.17
13027;BME280;6580;42.680;23.324;2023-04-10T09:10:41;95340.47;;;12.60;62.42
13027;BME280;6580;42.680;23.324;2023-04-10T09:13:38;95341.09;;;12.86;61.18
13027;BME280;6580;42.680;23.324;2023-04-10T09:16:28;95336.75;;;12.85;60.21
13027;BME280;6580;42.680;23.324;2023-04-10T09:19:28;95332.78;;;12.57;58.86
13027;BME280;6580;42.680;23.324;2023-04-10T09:22:15;95327.06;;;12.84;57.80
13027;BME280;6580;42.680;23.324;2023-04-10T09:25:02;95324.22;;;12.86;56.84
13027;BME280;6580;42.680;23.324;2023-04-10T09:27:59;95322.91;;;12.58;55.98
13027;BME280;6580;42.680;23.324;2023-04-10T09:30:45;95326.06;;;12.69;56.83
13027;BME280;6580;42.680;23.324;2023-04-10T09:33:33;95325.59;;;12.50;56.79
13027;BME280;6580;42.680;23.324;2023-04-10T09:36:20;95330.44;;;12.46;57.62
13027;BME280;6580;42.680;23.324;2023-04-10T09:39:06;95329.44;;;12.79;56.81
13027;BME280;6580;42.680;23.324;2023-04-10T09:41:53;95322.19;;;13.12;56.25
13027;BME280;6580;42.680;23.324;2023-04-10T09:44:40;95316.22;;;13.10;56.27
13027;BME280;6580;42.680;23.324;2023-04-10T09:47:26;95321.22;;;12.89;56.10
13027;BME280;6580;42.680;23.324;2023-04-10T09:50:13;95308.03;;;12.79;55.29
13027;BME280;6580;42.680;23.324;2023-04-10T09:52:58;95310.88;;;12.62;56.49
13027;BME280;6580;42.680;23.324;2023-04-10T09:55:45;95317.75;;;12.56;55.44
13027;BME280;6580;42.680;23.324;2023-04-10T09:58:31;95322.59;;;12.53;55.65
13027;BME280;6580;42.680;23.324;2023-04-10T10:01:18;95320.59;;;12.55;55.09
13027;BME280;6580;42.680;23.324;2023-04-10T10:04:08;95315.66;;;14.29;50.67
13027;BME280;6580;42.680;23.324;2023-04-10T10:06:55;95303.03;;;14.37;49.91
13027;BME280;6580;42.680;23.324;2023-04-10T10:09:44;95306.94;;;13.66;51.05
13027;BME280;6580;42.680;23.324;2023-04-10T10:12:34;95280.06;;;13.14;51.93
13027;BME280;6580;42.680;23.324;2023-04-10T10:15:23;95313.75;;;13.46;52.05
13027;BME280;6580;42.680;23.324;2023-04-10T10:18:17;95302.38;;;13.44;50.91
13027;BME280;6580;42.680;23.324;2023-04-10T10:21:07;95289.22;;;13.65;50.68
13027;BME280;6580;42.680;23.324;2023-04-10T10:23:56;95298.50;;;13.09;52.11
13027;BME280;6580;42.680;23.324;2023-04-10T10:26:43;95278.41;;;13.13;52.30
13027;BME280;6580;42.680;23.324;2023-04-10T10:29:31;95278.31;;;12.74;53.81
13027;BME280;6580;42.680;23.324;2023-04-10T10:32:19;95278.72;;;13.25;52.34
13027;BME280;6580;42.680;23.324;2023-04-10T10:35:05;95282.44;;;13.09;52.82
13027;BME280;6580;42.680;23.324;2023-04-10T10:37:52;95282.16;;;13.72;51.05
13027;BME280;6580;42.680;23.324;2023-04-10T10:40:48;95260.72;;;14.70;48.49
13027;BME280;6580;42.680;23.324;2023-04-10T10:43:44;95264.78;;;14.66;48.53
13027;BME280;6580;42.680;23.324;2023-04-10T10:46:35;95269.47;;;13.97;49.98
13027;BME280;6580;42.680;23.324;2023-04-10T10:49:55;95273.16;;;13.96;50.35
13027;BME280;6580;42.680;23.324;2023-04-10T10:52:43;95265.41;;;13.48;51.44
13027;BME280;6580;42.680;23.324;2023-04-10T10:55:32;95255.28;;;13.66;52.27
13027;BME280;6580;42.680;23.324;2023-04-10T10:58:44;95249.81;;;13.59;51.78
13027;BME280;6580;42.680;23.324;2023-04-10T11:01:31;95254.63;;;14.17;51.02
13027;BME280;6580;42.680;23.324;2023-04-10T11:04:42;95236.84;;;14.75;47.51
13027;BME280;6580;42.680;23.324;2023-04-10T11:10:58;95223.34;;;16.95;42.29
13027;BME280;6580;42.680;23.324;2023-04-10T11:14:16;95223.66;;;17.80;40.18
13027;BME280;6580;42.680;23.324;2023-04-10T11:17:02;95217.22;;;19.19;37.75
13027;BME280;6580;42.680;23.324;2023-04-10T11:20:17;95206.81;;;19.29;36.76
13027;BME280;6580;42.680;23.324;2023-04-10T11:23:09;95200.41;;;17.73;38.33
13027;BME280;6580;42.680;23.324;2023-04-10T11:25:56;95206.00;;;16.70;41.20
13027;BME280;6580;42.680;23.324;2023-04-10T11:28:42;95198.88;;;15.15;44.43
13027;BME280;6580;42.680;23.324;2023-04-10T11:31:29;95215.69;;;14.28;46.78
13027;BME280;6580;42.680;23.324;2023-04-10T11:34:16;95216.41;;;14.00;49.34
13027;BME280;6580;42.680;23.324;2023-04-10T11:37:02;95219.16;;;14.15;48.25
13027;BME280;6580;42.680;23.324;2023-04-10T11:39:47;95212.63;;;14.54;47.95
13027;BME280;6580;42.680;23.324;2023-04-10T11:42:34;95215.63;;;14.88;47.83
13027;BME280;6580;42.680;23.324;2023-04-10T11:45:24;95206.75;;;15.45;47.02
13027;BME280;6580;42.680;23.324;2023-04-10T11:48:13;95201.34;;;16.85;43.98
13027;BME280;6580;42.680;23.324;2023-04-10T11:51:06;95207.50;;;17.13;42.39
13027;BME280;6580;42.680;23.324;2023-04-10T11:54:06;95204.63;;;15.76;42.54
13027;BME280;6580;42.680;23.324;2023-04-10T11:56:58;95210.13;;;15.68;43.68
13027;BME280;6580;42.680;23.324;2023-04-10T11:59:49;95204.88;;;14.73;45.86
13027;BME280;6580;42.680;23.324;2023-04-10T12:02:34;95205.00;;;14.43;46.64
13027;BME280;6580;42.680;23.324;2023-04-10T12:05:45;95202.75;;;14.69;46.48
13027;BME280;6580;42.680;23.324;2023-04-10T12:08:31;95197.47;;;14.46;46.75
13027;BME280;6580;42.680;23.324;2023-04-10T12:11:18;95208.56;;;14.58;45.66
13027;BME280;6580;42.680;23.324;2023-04-10T12:14:18;95202.69;;;14.40;47.59
13027;BME280;6580;42.680;23.324;2023-04-10T12:17:06;95194.69;;;14.18;49.05
13027;BME280;6580;42.680;23.324;2023-04-10T12:19:51;95222.97;;;13.67;53.62
13027;BME280;6580;42.680;23.324;2023-04-10T12:22:38;95231.75;;;12.53;70.61
13027;BME280;6580;42.680;23.324;2023-04-10T12:25:26;95248.91;;;11.63;92.80
13027;BME280;6580;42.680;23.324;2023-04-10T12:28:16;95249.00;;;10.96;100.00
13027;BME280;6580;42.680;23.324;2023-04-10T12:31:01;95253.78;;;10.85;100.00
13027;BME280;6580;42.680;23.324;2023-04-10T12:33:47;95245.22;;;11.07;100.00
13027;BME280;6580;42.680;23.324;2023-04-10T12:36:32;95245.63;;;10.61;100.00
13027;BME280;6580;42.680;23.324;2023-04-10T12:39:23;95267.66;;;9.85;100.00
13027;BME280;6580;42.680;23.324;2023-04-10T12:42:10;95244.25;;;9.89;100.00
13027;BME280;6580;42.680;23.324;2023-04-10T12:44:57;95241.53;;;9.63;100.00
13027;BME280;6580;42.680;23.324;2023-04-10T12:47:44;95233.44;;;9.90;100.00
13027;BME280;6580;42.680;23.324;2023-04-10T12:50:30;95232.00;;;10.13;100.00
13027;BME280;6580;42.680;23.324;2023-04-10T12:53:15;95227.97;;;10.52;98.79
13027;BME280;6580;42.680;23.324;2023-04-10T12:56:08;95229.06;;;11.08;99.21
13027;BME280;6580;42.680;23.324;2023-04-10T12:59:05;95224.09;;;11.62;95.24
13027;BME280;6580;42.680;23.324;2023-04-10T13:01:51;95218.63;;;11.30;95.28
13027;BME280;6580;42.680;23.324;2023-04-10T13:04:37;95217.03;;;11.45;99.19
13027;BME280;6580;42.680;23.324;2023-04-10T13:07:22;95215.59;;;11.67;96.17
13027;BME280;6580;42.680;23.324;2023-04-10T13:10:08;95203.78;;;12.17;94.57
13027;BME280;6580;42.680;23.324;2023-04-10T13:12:55;95204.25;;;12.44;93.25
13027;BME280;6580;42.680;23.324;2023-04-10T13:15:41;95202.63;;;12.82;93.60
13027;BME280;6580;42.680;23.324;2023-04-10T13:18:27;95204.31;;;13.29;90.31
13027;BME280;6580;42.680;23.324;2023-04-10T13:21:12;95188.94;;;12.85;83.16
13027;BME280;6580;42.680;23.324;2023-04-10T13:24:01;95199.00;;;12.67;82.14
13027;BME280;6580;42.680;23.324;2023-04-10T13:26:46;95182.09;;;12.74;83.83
13027;BME280;6580;42.680;23.324;2023-04-10T13:29:33;95186.41;;;13.29;78.74
13027;BME280;6580;42.680;23.324;2023-04-10T13:32:18;95184.47;;;13.16;75.00
13027;BME280;6580;42.680;23.324;2023-04-10T13:35:04;95178.03;;;13.32;71.21
13027;BME280;6580;42.680;23.324;2023-04-10T13:37:49;95177.44;;;12.76;75.96
13027;BME280;6580;42.680;23.324;2023-04-10T13:40:38;95176.09;;;12.72;77.53
13027;BME280;6580;42.680;23.324;2023-04-10T13:43:37;95185.41;;;13.30;74.54
13027;BME280;6580;42.680;23.324;2023-04-10T13:46:24;95170.41;;;13.21;70.57
13027;BME280;6580;42.680;23.324;2023-04-10T13:49:09;95164.75;;;13.47;73.58
13027;BME280;6580;42.680;23.324;2023-04-10T13:51:55;95160.22;;;13.47;68.96
13027;BME280;6580;42.680;23.324;2023-04-10T13:54:41;95159.63;;;13.37;68.64
13027;BME280;6580;42.680;23.324;2023-04-10T13:57:27;95162.84;;;13.55;68.09
13027;BME280;6580;42.680;23.324;2023-04-10T14:00:13;95149.56;;;13.84;68.25
13027;BME280;6580;42.680;23.324;2023-04-10T14:03:00;95156.38;;;13.50;63.50
13027;BME280;6580;42.680;23.324;2023-04-10T14:05:46;95156.06;;;13.67;63.67
13027;BME280;6580;42.680;23.324;2023-04-10T14:08:31;95159.81;;;13.58;61.18
13027;BME280;6580;42.680;23.324;2023-04-10T14:11:17;95150.22;;;13.19;62.43
13027;BME280;6580;42.680;23.324;2023-04-10T14:14:03;95142.75;;;13.37;63.06
13027;BME280;6580;42.680;23.324;2023-04-10T14:16:49;95150.59;;;13.83;62.60
13027;BME280;6580;42.680;23.324;2023-04-10T14:19:36;95146.78;;;14.00;63.24
13027;BME280;6580;42.680;23.324;2023-04-10T14:22:25;95138.34;;;13.66;62.32
13027;BME280;6580;42.680;23.324;2023-04-10T14:25:13;95151.72;;;13.44;62.35
13027;BME280;6580;42.680;23.324;2023-04-10T14:27:59;95153.91;;;13.18;64.32
13027;BME280;6580;42.680;23.324;2023-04-10T14:30:48;95157.53;;;12.79;64.24
13027;BME280;6580;42.680;23.324;2023-04-10T14:33:33;95158.47;;;12.47;63.74
13027;BME280;6580;42.680;23.324;2023-04-10T14:36:21;95157.31;;;12.42;63.94
13027;BME280;6580;42.680;23.324;2023-04-10T14:39:06;95157.19;;;12.27;63.00
13027;BME280;6580;42.680;23.324;2023-04-10T14:41:51;95162.97;;;12.47;62.28
13027;BME280;6580;42.680;23.324;2023-04-10T14:44:37;95154.69;;;12.34;62.98
13027;BME280;6580;42.680;23.324;2023-04-10T14:47:22;95154.38;;;12.05;64.63
13027;BME280;6580;42.680;23.324;2023-04-10T14:50:08;95160.16;;;12.32;65.59
13027;BME280;6580;42.680;23.324;2023-04-10T14:52:56;95173.13;;;12.59;65.55
13027;BME280;6580;42.680;23.324;2023-04-10T14:55:58;95161.53;;;12.20;68.62
13027;BME280;6580;42.680;23.324;2023-04-10T14:58:44;95161.19;;;12.15;70.02